sensor_id;sensor_type;location;lat;lon;timestamp;P1;durP1;ratioP1;P2;durP2;ratioP2
35917;SDS011;22011;59.912;30.300;2024-03-06T00:01:22;7.10;;;2.92;;
35917;SDS011;22011;59.912;30.300;2024-03-06T00:03:50;10.57;;;3.83;;
35917;SDS011;22011;59.912;30.300;2024-03-06T00:06:17;6.72;;;3.17;;
35917;SDS011;22011;59.912;30.300;2024-03-06T00:08:46;7.30;;;3.67;;
35917;SDS011;22011;59.912;30.300;2024-03-06T00:11:13;13.23;;;4.05;;
35917;SDS011;22011;59.912;30.300;2024-03-06T00:13:42;9.88;;;3.50;;
35917;SDS011;22011;59.912;30.300;2024-03-06T00:16:10;11.93;;;4.07;;
35917;SDS011;22011;59.912;30.300;2024-03-06T00:18:38;8.52;;;4.00;;
35917;SDS011;22011;59.912;30.300;2024-03-06T00:21:06;13.80;;;5.40;;
35917;SDS011;22011;59.912;30.300;2024-03-06T00:23:33;13.10;;;4.20;;
35917;SDS011;22011;59.912;30.300;2024-03-06T00:26:01;11.15;;;5.22;;
35917;SDS011;22011;59.912;30.300;2024-03-06T00:28:29;11.98;;;6.45;;
35917;SDS011;22011;59.912;30.300;2024-03-06T00:30:58;14.52;;;5.10;;
35917;SDS011;22011;59.912;30.300;2024-03-06T00:33:26;11.38;;;4.95;;
35917;SDS011;22011;59.912;30.300;2024-03-06T00:35:54;13.50;;;4.82;;
35917;SDS011;22011;59.912;30.300;2024-03-06T00:38:21;9.13;;;4.35;;
35917;SDS011;22011;59.912;30.300;2024-03-06T00:40:49;8.05;;;4.07;;
35917;SDS011;22011;59.912;30.300;2024-03-06T00:43:17;12.07;;;4.00;;
35917;SDS011;22011;59.912;30.300;2024-03-06T00:45:44;15.30;;;4.53;;
35917;SDS011;22011;59.912;30.300;2024-03-06T00:48:13;15.60;;;5.18;;
35917;SDS011;22011;59.912;30.300;2024-03-06T00:50:41;11.25;;;4.25;;
35917;SDS011;22011;59.912;30.300;2024-03-06T00:53:09;11.68;;;4.65;;
35917;SDS011;22011;59.912;30.300;2024-03-06T00:55:37;8.95;;;5.00;;
35917;SDS011;22011;59.912;30.300;2024-03-06T00:58:06;10.25;;;4.35;;
35917;SDS011;22011;59.912;30.300;2024-03-06T01:00:33;12.02;;;4.45;;
35917;SDS011;22011;59.912;30.300;2024-03-06T01:03:01;14.18;;;4.57;;
35917;SDS011;22011;59.912;30.300;2024-03-06T01:05:30;8.05;;;3.72;;
35917;SDS011;22011;59.912;30.300;2024-03-06T01:07:58;8.17;;;4.03;;
35917;SDS011;22011;59.912;30.300;2024-03-06T01:10:26;8.77;;;4.65;;
35917;SDS011;22011;59.912;30.300;2024-03-06T01:12:54;7.55;;;3.70;;
35917;SDS011;22011;59.912;30.300;2024-03-06T01:15:21;9.65;;;4.20;;
35917;SDS011;22011;59.912;30.300;2024-03-06T01:17:49;7.28;;;3.72;;
35917;SDS011;22011;59.912;30.300;2024-03-06T01:20:17;9.85;;;3.72;;
35917;SDS011;22011;59.912;30.300;2024-03-06T01:22:47;7.68;;;3.83;;
35917;SDS011;22011;59.912;30.300;2024-03-06T01:25:14;8.88;;;3.55;;
35917;SDS011;22011;59.912;30.300;2024-03-06T01:27:42;8.98;;;4.18;;
35917;SDS011;22011;59.912;30.300;2024-03-06T01:30:10;8.82;;;4.05;;
35917;SDS011;22011;59.912;30.300;2024-03-06T01:32:38;8.98;;;3.92;;
35917;SDS011;22011;59.912;30.300;2024-03-06T01:35:06;8.00;;;3.78;;
35917;SDS011;22011;59.912;30.300;2024-03-06T01:37:34;10.75;;;3.70;;
35917;SDS011;22011;59.912;30.300;2024-03-06T01:40:04;10.80;;;4.22;;
35917;SDS011;22011;59.912;30.300;2024-03-06T01:42:33;10.88;;;4.32;;
35917;SDS011;22011;59.912;30.300;2024-03-06T01:45:01;10.80;;;4.43;;
35917;SDS011;22011;59.912;30.300;2024-03-06T01:47:29;14.65;;;4.63;;
35917;SDS011;22011;59.912;30.300;2024-03-06T01:49:57;12.55;;;4.63;;
35917;SDS011;22011;59.912;30.300;2024-03-06T01:52:25;12.85;;;4.00;;
35917;SDS011;22011;59.912;30.300;2024-03-06T01:54:53;8.52;;;4.18;;
35917;SDS011;22011;59.912;30.300;2024-03-06T01:57:23;7.35;;;3.55;;
35917;SDS011;22011;59.912;30.300;2024-03-06T01:59:51;13.75;;;4.68;;
35917;SDS011;22011;59.912;30.300;2024-03-06T02:02:20;8.68;;;3.17;;
35917;SDS011;22011;59.912;30.300;2024-03-06T02:04:48;8.48;;;3.70;;
35917;SDS011;22011;59.912;30.300;2024-03-06T02:07:16;11.45;;;4.43;;
35917;SDS011;22011;59.912;30.300;2024-03-06T02:09:44;8.38;;;3.75;;
35917;SDS011;22011;59.912;30.300;2024-03-06T02:12:12;8.98;;;2.90;;
35917;SDS011;22011;59.912;30.300;2024-03-06T02:14:41;8.30;;;3.28;;
35917;SDS011;22011;59.912;30.300;2024-03-06T02:17:10;8.55;;;2.80;;
35917;SDS011;22011;59.912;30.300;2024-03-06T02:19:38;14.10;;;3.17;;
35917;SDS011;22011;59.912;30.300;2024-03-06T02:22:08;7.57;;;3.42;;
35917;SDS011;22011;59.912;30.300;2024-03-06T02:24:36;6.60;;;2.92;;
35917;SDS011;22011;59.912;30.300;2024-03-06T02:27:04;6.88;;;2.42;;
35917;SDS011;22011;59.912;30.300;2024-03-06T02:29:32;6.25;;;2.58;;
35917;SDS011;22011;59.912;30.300;2024-03-06T02:32:00;7.97;;;2.75;;
35917;SDS011;22011;59.912;30.300;2024-03-06T02:34:28;7.10;;;2.25;;
35917;SDS011;22011;59.912;30.300;2024-03-06T02:36:56;11.40;;;2.33;;
35917;SDS011;22011;59.912;30.300;2024-03-06T02:39:25;6.78;;;2.63;;
35917;SDS011;22011;59.912;30.300;2024-03-06T02:41:53;7.50;;;2.30;;
35917;SDS011;22011;59.912;30.300;2024-03-06T02:44:21;5.50;;;2.17;;
35917;SDS011;22011;59.912;30.300;2024-03-06T02:46:48;4.35;;;2.20;;
35917;SDS011;22011;59.912;30.300;2024-03-06T02:49:16;5.82;;;2.40;;
35917;SDS011;22011;59.912;30.300;2024-03-06T02:51:45;6.60;;;3.17;;
35917;SDS011;22011;59.912;30.300;2024-03-06T02:54:13;10.88;;;2.78;;
35917;SDS011;22011;59.912;30.300;2024-03-06T02:56:42;5.55;;;2.95;;
35917;SDS011;22011;59.912;30.300;2024-03-06T02:59:10;7.00;;;2.50;;
35917;SDS011;22011;59.912;30.300;2024-03-06T03:01:37;12.88;;;2.60;;
35917;SDS011;22011;59.912;30.300;2024-03-06T03:04:05;8.88;;;3.20;;
35917;SDS011;22011;59.912;30.300;2024-03-06T03:06:33;7.72;;;2.97;;
35917;SDS011;22011;59.912;30.300;2024-03-06T03:09:01;6.50;;;2.95;;
35917;SDS011;22011;59.912;30.300;2024-03-06T03:11:29;7.55;;;2.55;;
35917;SDS011;22011;59.912;30.300;2024-03-06T03:13:59;6.97;;;2.70;;
35917;SDS011;22011;59.912;30.300;2024-03-06T03:16:27;7.82;;;3.20;;
35917;SDS011;22011;59.912;30.300;2024-03-06T03:18:55;9.00;;;3.33;;
35917;SDS011;22011;59.912;30.300;2024-03-06T03:21:23;11.57;;;2.92;;
35917;SDS011;22011;59.912;30.300;2024-03-06T03:23:51;5.10;;;2.75;;
35917;SDS011;22011;59.912;30.300;2024-03-06T03:26:18;9.63;;;3.28;;
35917;SDS011;22011;59.912;30.300;2024-03-06T03:28:46;7.22;;;3.15;;
35917;SDS011;22011;59.912;30.300;2024-03-06T03:31:15;7.78;;;2.78;;
35917;SDS011;22011;59.912;30.300;2024-03-06T03:33:43;6.38;;;2.38;;
35917;SDS011;22011;59.912;30.300;2024-03-06T03:36:11;5.20;;;2.72;;
35917;SDS011;22011;59.912;30.300;2024-03-06T03:38:38;6.97;;;2.63;;
35917;SDS011;22011;59.912;30.300;2024-03-06T03:41:07;5.25;;;2.55;;
35917;SDS011;22011;59.912;30.300;2024-03-06T03:43:35;6.35;;;2.95;;
35917;SDS011;22011;59.912;30.300;2024-03-06T03:46:03;11.45;;;3.30;;
35917;SDS011;22011;59.912;30.300;2024-03-06T03:48:33;5.53;;;2.67;;
35917;SDS011;22011;59.912;30.300;2024-03-06T03:53:30;11.80;;;2.90;;
35917;SDS011;22011;59.912;30.300;2024-03-06T03:55:58;5.55;;;3.20;;
35917;SDS011;22011;59.912;30.300;2024-03-06T03:58:26;6.28;;;2.60;;
35917;SDS011;22011;59.912;30.300;2024-03-06T04:00:54;6.07;;;2.90;;
35917;SDS011;22011;59.912;30.300;2024-03-06T04:03:22;7.45;;;3.30;;
35917;SDS011;22011;59.912;30.300;2024-03-06T04:05:51;8.95;;;3.85;;
35917;SDS011;22011;59.912;30.300;2024-03-06T04:08:18;9.38;;;3.20;;
35917;SDS011;22011;59.912;30.300;2024-03-06T04:10:46;10.55;;;3.65;;
35917;SDS011;22011;59.912;30.300;2024-03-06T04:13:14;7.53;;;3.97;;
35917;SDS011;22011;59.912;30.300;2024-03-06T04:15:45;10.30;;;3.80;;
35917;SDS011;22011;59.912;30.300;2024-03-06T04:18:13;10.38;;;4.32;;
35917;SDS011;22011;59.912;30.300;2024-03-06T04:20:41;12.50;;;4.47;;
35917;SDS011;22011;59.912;30.300;2024-03-06T04:23:10;13.32;;;4.05;;
35917;SDS011;22011;59.912;30.300;2024-03-06T04:25:38;11.15;;;4.80;;
35917;SDS011;22011;59.912;30.300;2024-03-06T04:28:06;10.20;;;4.97;;
35917;SDS011;22011;59.912;30.300;2024-03-06T04:30:34;12.10;;;5.57;;
35917;SDS011;22011;59.912;30.300;2024-03-06T04:33:02;9.05;;;4.18;;
35917;SDS011;22011;59.912;30.300;2024-03-06T04:35:30;7.70;;;3.65;;
35917;SDS011;22011;59.912;30.300;2024-03-06T04:37:58;11.43;;;4.88;;
35917;SDS011;22011;59.912;30.300;2024-03-06T04:40:29;7.57;;;4.10;;
35917;SDS011;22011;59.912;30.300;2024-03-06T04:42:57;14.25;;;4.95;;
35917;SDS011;22011;59.912;30.300;2024-03-06T04:45:25;11.15;;;3.65;;
35917;SDS011;22011;59.912;30.300;2024-03-06T04:47:54;7.50;;;3.33;;
35917;SDS011;22011;59.912;30.300;2024-03-06T04:50:21;6.93;;;3.45;;
35917;SDS011;22011;59.912;30.300;2024-03-06T04:52:49;7.43;;;3.53;;
35917;SDS011;22011;59.912;30.300;2024-03-06T04:55:17;7.68;;;4.10;;
35917;SDS011;22011;59.912;30.300;2024-03-06T04:57:49;8.55;;;3.60;;
35917;SDS011;22011;59.912;30.300;2024-03-06T05:00:17;13.07;;;4.35;;
35917;SDS011;22011;59.912;30.300;2024-03-06T05:02:45;10.10;;;3.50;;
35917;SDS011;22011;59.912;30.300;2024-03-06T05:05:15;5.05;;;3.45;;
35917;SDS011;22011;59.912;30.300;2024-03-06T05:07:42;11.00;;;4.68;;
35917;SDS011;22011;59.912;30.300;2024-03-06T05:10:11;9.57;;;3.72;;
35917;SDS011;22011;59.912;30.300;2024-03-06T05:12:39;7.60;;;3.78;;
35917;SDS011;22011;59.912;30.300;2024-03-06T05:15:08;7.47;;;3.15;;
35917;SDS011;22011;59.912;30.300;2024-03-06T05:17:37;8.02;;;3.60;;
35917;SDS011;22011;59.912;30.300;2024-03-06T05:20:05;7.95;;;3.13;;
35917;SDS011;22011;59.912;30.300;2024-03-06T05:22:33;13.63;;;2.92;;
35917;SDS011;22011;59.912;30.300;2024-03-06T05:25:01;5.90;;;2.33;;
35917;SDS011;22011;59.912;30.300;2024-03-06T05:27:29;6.72;;;3.72;;
35917;SDS011;22011;59.912;30.300;2024-03-06T05:29:57;9.00;;;4.90;;
35917;SDS011;22011;59.912;30.300;2024-03-06T05:32:26;9.60;;;5.47;;
35917;SDS011;22011;59.912;30.300;2024-03-06T05:34:54;10.23;;;4.03;;
35917;SDS011;22011;59.912;30.300;2024-03-06T05:37:21;10.02;;;3.20;;
35917;SDS011;22011;59.912;30.300;2024-03-06T05:39:49;5.47;;;2.83;;
35917;SDS011;22011;59.912;30.300;2024-03-06T05:42:17;5.78;;;3.08;;
35917;SDS011;22011;59.912;30.300;2024-03-06T05:44:44;7.40;;;3.13;;
35917;SDS011;22011;59.912;30.300;2024-03-06T05:47:12;8.98;;;3.33;;
35917;SDS011;22011;59.912;30.300;2024-03-06T05:49:41;8.18;;;2.78;;
35917;SDS011;22011;59.912;30.300;2024-03-06T05:52:09;6.30;;;2.75;;
35917;SDS011;22011;59.912;30.300;2024-03-06T05:54:36;4.95;;;2.60;;
35917;SDS011;22011;59.912;30.300;2024-03-06T05:57:05;5.72;;;2.60;;
35917;SDS011;22011;59.912;30.300;2024-03-06T05:59:34;7.32;;;2.60;;
35917;SDS011;22011;59.912;30.300;2024-03-06T06:02:03;4.63;;;2.45;;
35917;SDS011;22011;59.912;30.300;2024-03-06T06:04:31;4.88;;;2.50;;
35917;SDS011;22011;59.912;30.300;2024-03-06T06:07:00;9.90;;;3.17;;
35917;SDS011;22011;59.912;30.300;2024-03-06T06:09:29;7.30;;;5.00;;
35917;SDS011;22011;59.912;30.300;2024-03-06T06:11:57;6.45;;;3.35;;
35917;SDS011;22011;59.912;30.300;2024-03-06T06:14:25;6.20;;;2.60;;
35917;SDS011;22011;59.912;30.300;2024-03-06T06:16:55;7.72;;;3.15;;
35917;SDS011;22011;59.912;30.300;2024-03-06T06:19:23;6.40;;;3.65;;
35917;SDS011;22011;59.912;30.300;2024-03-06T06:21:51;5.68;;;3.20;;
35917;SDS011;22011;59.912;30.300;2024-03-06T06:24:22;8.07;;;3.95;;
35917;SDS011;22011;59.912;30.300;2024-03-06T06:26:50;5.88;;;3.45;;
35917;SDS011;22011;59.912;30.300;2024-03-06T06:29:18;14.45;;;3.03;;
35917;SDS011;22011;59.912;30.300;2024-03-06T06:31:45;6.95;;;3.75;;
35917;SDS011;22011;59.912;30.300;2024-03-06T06:34:13;5.22;;;2.58;;
35917;SDS011;22011;59.912;30.300;2024-03-06T06:36:44;15.68;;;3.03;;
35917;SDS011;22011;59.912;30.300;2024-03-06T06:39:12;5.03;;;3.10;;
35917;SDS011;22011;59.912;30.300;2024-03-06T06:41:43;8.93;;;3.13;;
35917;SDS011;22011;59.912;30.300;2024-03-06T06:44:11;9.02;;;2.83;;
35917;SDS011;22011;59.912;30.300;2024-03-06T06:46:39;8.10;;;2.95;;
35917;SDS011;22011;59.912;30.300;2024-03-06T06:49:06;13.73;;;3.03;;
35917;SDS011;22011;59.912;30.300;2024-03-06T06:51:34;8.43;;;2.90;;
35917;SDS011;22011;59.912;30.300;2024-03-06T06:54:02;5.05;;;2.75;;
35917;SDS011;22011;59.912;30.300;2024-03-06T06:56:31;16.70;;;3.33;;
35917;SDS011;22011;59.912;30.300;2024-03-06T06:59:01;3.90;;;2.08;;
35917;SDS011;22011;59.912;30.300;2024-03-06T07:01:28;4.68;;;2.80;;
35917;SDS011;22011;59.912;30.300;2024-03-06T07:03:56;4.53;;;2.90;;
35917;SDS011;22011;59.912;30.300;2024-03-06T07:06:24;8.15;;;2.55;;
35917;SDS011;22011;59.912;30.300;2024-03-06T07:08:51;7.68;;;2.70;;
35917;SDS011;22011;59.912;30.300;2024-03-06T07:11:19;5.18;;;2.67;;
35917;SDS011;22011;59.912;30.300;2024-03-06T07:13:47;4.97;;;2.42;;
35917;SDS011;22011;59.912;30.300;2024-03-06T07:16:16;6.55;;;2.85;;
35917;SDS011;22011;59.912;30.300;2024-03-06T07:18:45;6.45;;;2.78;;
35917;SDS011;22011;59.912;30.300;2024-03-06T07:21:13;6.80;;;2.80;;
35917;SDS011;22011;59.912;30.300;2024-03-06T07:23:41;4.90;;;2.78;;
35917;SDS011;22011;59.912;30.300;2024-03-06T07:26:08;5.78;;;2.75;;
35917;SDS011;22011;59.912;30.300;2024-03-06T07:28:36;7.13;;;2.83;;
35917;SDS011;22011;59.912;30.300;2024-03-06T07:31:04;8.55;;;2.80;;
35917;SDS011;22011;59.912;30.300;2024-03-06T07:33:33;9.23;;;3.00;;
35917;SDS011;22011;59.912;30.300;2024-03-06T07:36:04;7.30;;;2.63;;
35917;SDS011;22011;59.912;30.300;2024-03-06T07:38:32;7.60;;;2.40;;
35917;SDS011;22011;59.912;30.300;2024-03-06T07:40:59;6.90;;;3.75;;
35917;SDS011;22011;59.912;30.300;2024-03-06T07:43:27;8.32;;;2.95;;
35917;SDS011;22011;59.912;30.300;2024-03-06T07:45:55;7.45;;;2.15;;
35917;SDS011;22011;59.912;30.300;2024-03-06T07:48:22;12.60;;;3.63;;
35917;SDS011;22011;59.912;30.300;2024-03-06T07:50:51;9.35;;;2.40;;
35917;SDS011;22011;59.912;30.300;2024-03-06T07:53:19;4.07;;;1.98;;
35917;SDS011;22011;59.912;30.300;2024-03-06T07:55:47;11.35;;;2.20;;
35917;SDS011;22011;59.912;30.300;2024-03-06T07:58:14;10.00;;;2.50;;
35917;SDS011;22011;59.912;30.300;2024-03-06T08:00:42;8.73;;;2.65;;
35917;SDS011;22011;59.912;30.300;2024-03-06T08:03:10;5.47;;;2.00;;
35917;SDS011;22011;59.912;30.300;2024-03-06T08:05:39;6.30;;;2.38;;
35917;SDS011;22011;59.912;30.300;2024-03-06T08:08:09;7.40;;;2.30;;
35917;SDS011;22011;59.912;30.300;2024-03-06T08:10:36;11.00;;;1.88;;
35917;SDS011;22011;59.912;30.300;2024-03-06T08:13:04;14.70;;;2.42;;
35917;SDS011;22011;59.912;30.300;2024-03-06T08:15:32;12.65;;;2.45;;
35917;SDS011;22011;59.912;30.300;2024-03-06T08:17:59;6.85;;;2.33;;
35917;SDS011;22011;59.912;30.300;2024-03-06T08:20:29;14.20;;;3.42;;
35917;SDS011;22011;59.912;30.300;2024-03-06T08:22:57;9.13;;;2.47;;
35917;SDS011;22011;59.912;30.300;2024-03-06T08:25:27;15.20;;;2.50;;
35917;SDS011;22011;59.912;30.300;2024-03-06T08:27:54;3.65;;;2.15;;
35917;SDS011;22011;59.912;30.300;2024-03-06T08:30:22;4.45;;;2.53;;
35917;SDS011;22011;59.912;30.300;2024-03-06T08:32:50;14.32;;;2.78;;
35917;SDS011;22011;59.912;30.300;2024-03-06T08:35:18;5.97;;;2.38;;
35917;SDS011;22011;59.912;30.300;2024-03-06T08:37:47;4.13;;;2.38;;
35917;SDS011;22011;59.912;30.300;2024-03-06T08:40:15;7.13;;;2.20;;
35917;SDS011;22011;59.912;30.300;2024-03-06T08:42:44;5.32;;;2.35;;
35917;SDS011;22011;59.912;30.300;2024-03-06T08:45:13;6.75;;;2.40;;
35917;SDS011;22011;59.912;30.300;2024-03-06T08:47:41;4.18;;;2.22;;
35917;SDS011;22011;59.912;30.300;2024-03-06T08:50:09;12.57;;;3.53;;
35917;SDS011;22011;59.912;30.300;2024-03-06T08:52:37;10.50;;;2.58;;
35917;SDS011;22011;59.912;30.300;2024-03-06T08:55:07;6.15;;;1.92;;
35917;SDS011;22011;59.912;30.300;2024-03-06T08:57:35;5.93;;;3.35;;
35917;SDS011;22011;59.912;30.300;2024-03-06T09:00:05;4.97;;;2.35;;
35917;SDS011;22011;59.912;30.300;2024-03-06T09:02:36;5.00;;;1.80;;
35917;SDS011;22011;59.912;30.300;2024-03-06T09:05:06;6.20;;;1.75;;
35917;SDS011;22011;59.912;30.300;2024-03-06T09:07:36;3.47;;;1.70;;
35917;SDS011;22011;59.912;30.300;2024-03-06T09:10:04;2.55;;;1.45;;
35917;SDS011;22011;59.912;30.300;2024-03-06T09:12:32;5.72;;;1.55;;
35917;SDS011;22011;59.912;30.300;2024-03-06T09:15:01;4.00;;;1.50;;
35917;SDS011;22011;59.912;30.300;2024-03-06T09:17:30;5.50;;;1.30;;
35917;SDS011;22011;59.912;30.300;2024-03-06T09:19:58;9.07;;;1.77;;
35917;SDS011;22011;59.912;30.300;2024-03-06T09:22:30;3.85;;;1.20;;
35917;SDS011;22011;59.912;30.300;2024-03-06T09:24:57;7.43;;;0.98;;
35917;SDS011;22011;59.912;30.300;2024-03-06T09:27:25;8.52;;;1.63;;
35917;SDS011;22011;59.912;30.300;2024-03-06T09:29:53;4.28;;;1.55;;
35917;SDS011;22011;59.912;30.300;2024-03-06T09:32:22;1.70;;;1.20;;
35917;SDS011;22011;59.912;30.300;2024-03-06T09:34:53;5.35;;;1.35;;
35917;SDS011;22011;59.912;30.300;2024-03-06T09:37:21;16.00;;;1.60;;
35917;SDS011;22011;59.912;30.300;2024-03-06T09:39:48;12.10;;;1.10;;
35917;SDS011;22011;59.912;30.300;2024-03-06T09:42:17;9.88;;;1.58;;
35917;SDS011;22011;59.912;30.300;2024-03-06T09:44:44;6.03;;;1.42;;
35917;SDS011;22011;59.912;30.300;2024-03-06T09:47:13;4.25;;;0.80;;
35917;SDS011;22011;59.912;30.300;2024-03-06T09:49:41;3.20;;;0.90;;
35917;SDS011;22011;59.912;30.300;2024-03-06T09:52:11;2.60;;;0.95;;
35917;SDS011;22011;59.912;30.300;2024-03-06T09:54:38;4.40;;;1.30;;
35917;SDS011;22011;59.912;30.300;2024-03-06T09:57:07;2.95;;;1.02;;
35917;SDS011;22011;59.912;30.300;2024-03-06T09:59:35;10.25;;;1.20;;
35917;SDS011;22011;59.912;30.300;2024-03-06T10:02:13;6.03;;;1.13;;
35917;SDS011;22011;59.912;30.300;2024-03-06T10:04:54;4.28;;;1.35;;
35917;SDS011;22011;59.912;30.300;2024-03-06T10:07:24;6.82;;;1.30;;
35917;SDS011;22011;59.912;30.300;2024-03-06T10:09:53;7.47;;;1.42;;
35917;SDS011;22011;59.912;30.300;2024-03-06T10:12:20;3.75;;;1.20;;
35917;SDS011;22011;59.912;30.300;2024-03-06T10:14:49;12.32;;;1.20;;
35917;SDS011;22011;59.912;30.300;2024-03-06T10:17:21;1.33;;;0.80;;
35917;SDS011;22011;59.912;30.300;2024-03-06T10:19:49;9.20;;;1.25;;
35917;SDS011;22011;59.912;30.300;2024-03-06T10:22:19;7.07;;;1.13;;
35917;SDS011;22011;59.912;30.300;2024-03-06T10:27:21;5.70;;;1.42;;
35917;SDS011;22011;59.912;30.300;2024-03-06T10:30:00;11.98;;;1.10;;
35917;SDS011;22011;59.912;30.300;2024-03-06T10:32:30;3.88;;;1.08;;
35917;SDS011;22011;59.912;30.300;2024-03-06T10:34:58;3.30;;;1.02;;
35917;SDS011;22011;59.912;30.300;2024-03-06T10:37:33;6.30;;;0.90;;
35917;SDS011;22011;59.912;30.300;2024-03-06T10:40:03;10.02;;;1.02;;
35917;SDS011;22011;59.912;30.300;2024-03-06T10:42:32;6.13;;;0.95;;
35917;SDS011;22011;59.912;30.300;2024-03-06T10:45:03;9.20;;;0.90;;
35917;SDS011;22011;59.912;30.300;2024-03-06T10:47:33;1.27;;;0.73;;
35917;SDS011;22011;59.912;30.300;2024-03-06T10:50:00;1.85;;;0.50;;
35917;SDS011;22011;59.912;30.300;2024-03-06T10:52:30;3.75;;;0.95;;
35917;SDS011;22011;59.912;30.300;2024-03-06T10:55:03;5.85;;;0.70;;
35917;SDS011;22011;59.912;30.300;2024-03-06T10:59:59;5.35;;;0.43;;
35917;SDS011;22011;59.912;30.300;2024-03-06T11:02:28;3.03;;;0.63;;
35917;SDS011;22011;59.912;30.300;2024-03-06T11:04:57;7.35;;;1.10;;
35917;SDS011;22011;59.912;30.300;2024-03-06T11:07:31;6.07;;;0.80;;
35917;SDS011;22011;59.912;30.300;2024-03-06T11:09:58;7.50;;;0.70;;
35917;SDS011;22011;59.912;30.300;2024-03-06T11:12:34;5.18;;;0.93;;
35917;SDS011;22011;59.912;30.300;2024-03-06T11:15:08;8.20;;;3.03;;
35917;SDS011;22011;59.912;30.300;2024-03-06T11:17:37;5.03;;;1.10;;
35917;SDS011;22011;59.912;30.300;2024-03-06T11:20:08;4.20;;;1.08;;
35917;SDS011;22011;59.912;30.300;2024-03-06T11:25:55;12.18;;;1.70;;
35917;SDS011;22011;59.912;30.300;2024-03-06T11:28:33;6.35;;;1.50;;
35917;SDS011;22011;59.912;30.300;2024-03-06T11:31:01;6.22;;;1.40;;
35917;SDS011;22011;59.912;30.300;2024-03-06T11:33:36;5.93;;;1.10;;
35917;SDS011;22011;59.912;30.300;2024-03-06T11:36:14;3.67;;;1.02;;
35917;SDS011;22011;59.912;30.300;2024-03-06T11:38:47;12.10;;;1.08;;
35917;SDS011;22011;59.912;30.300;2024-03-06T11:41:20;9.23;;;1.27;;
35917;SDS011;22011;59.912;30.300;2024-03-06T11:43:52;2.97;;;0.90;;
35917;SDS011;22011;59.912;30.300;2024-03-06T11:46:21;3.17;;;0.63;;
35917;SDS011;22011;59.912;30.300;2024-03-06T11:48:53;2.70;;;0.80;;
35917;SDS011;22011;59.912;30.300;2024-03-06T11:51:22;5.65;;;1.00;;
35917;SDS011;22011;59.912;30.300;2024-03-06T11:53:50;3.67;;;0.80;;
35917;SDS011;22011;59.912;30.300;2024-03-06T11:56:19;7.03;;;1.00;;
35917;SDS011;22011;59.912;30.300;2024-03-06T11:58:47;5.32;;;1.15;;
35917;SDS011;22011;59.912;30.300;2024-03-06T12:01:16;7.13;;;0.85;;
35917;SDS011;22011;59.912;30.300;2024-03-06T12:03:45;4.05;;;1.08;;
35917;SDS011;22011;59.912;30.300;2024-03-06T12:06:14;4.00;;;1.00;;
35917;SDS011;22011;59.912;30.300;2024-03-06T12:08:45;7.50;;;1.00;;
35917;SDS011;22011;59.912;30.300;2024-03-06T12:11:12;2.65;;;0.63;;
35917;SDS011;22011;59.912;30.300;2024-03-06T12:13:41;3.78;;;1.00;;
35917;SDS011;22011;59.912;30.300;2024-03-06T12:16:09;5.15;;;1.10;;
35917;SDS011;22011;59.912;30.300;2024-03-06T12:18:39;10.25;;;1.00;;
35917;SDS011;22011;59.912;30.300;2024-03-06T12:21:07;8.90;;;1.20;;
35917;SDS011;22011;59.912;30.300;2024-03-06T12:23:34;3.33;;;1.00;;
35917;SDS011;22011;59.912;30.300;2024-03-06T12:26:03;6.63;;;1.00;;
35917;SDS011;22011;59.912;30.300;2024-03-06T12:28:31;4.88;;;1.15;;
35917;SDS011;22011;59.912;30.300;2024-03-06T12:30:59;5.25;;;1.08;;
35917;SDS011;22011;59.912;30.300;2024-03-06T12:33:29;5.05;;;0.95;;
35917;SDS011;22011;59.912;30.300;2024-03-06T12:36:03;3.30;;;0.82;;
35917;SDS011;22011;59.912;30.300;2024-03-06T12:38:32;7.88;;;1.38;;
35917;SDS011;22011;59.912;30.300;2024-03-06T12:40:59;2.85;;;0.85;;
35917;SDS011;22011;59.912;30.300;2024-03-06T12:43:27;5.47;;;1.25;;
35917;SDS011;22011;59.912;30.300;2024-03-06T12:45:55;4.40;;;1.23;;
35917;SDS011;22011;59.912;30.300;2024-03-06T12:48:24;5.25;;;0.60;;
35917;SDS011;22011;59.912;30.300;2024-03-06T12:50:51;11.57;;;1.00;;
35917;SDS011;22011;59.912;30.300;2024-03-06T12:53:21;4.38;;;0.95;;
35917;SDS011;22011;59.912;30.300;2024-03-06T12:55:49;5.28;;;1.13;;
35917;SDS011;22011;59.912;30.300;2024-03-06T12:58:17;2.50;;;0.70;;
35917;SDS011;22011;59.912;30.300;2024-03-06T13:00:44;7.47;;;1.17;;
35917;SDS011;22011;59.912;30.300;2024-03-06T13:03:12;1.73;;;0.80;;
35917;SDS011;22011;59.912;30.300;2024-03-06T13:05:40;5.53;;;1.02;;
35917;SDS011;22011;59.912;30.300;2024-03-06T13:08:07;3.28;;;0.60;;
35917;SDS011;22011;59.912;30.300;2024-03-06T13:10:37;4.90;;;0.95;;
35917;SDS011;22011;59.912;30.300;2024-03-06T13:13:04;13.32;;;1.00;;
35917;SDS011;22011;59.912;30.300;2024-03-06T13:15:32;8.40;;;1.25;;
35917;SDS011;22011;59.912;30.300;2024-03-06T13:18:01;3.90;;;1.15;;
35917;SDS011;22011;59.912;30.300;2024-03-06T13:20:29;2.45;;;0.90;;
35917;SDS011;22011;59.912;30.300;2024-03-06T13:22:57;3.03;;;0.90;;
35917;SDS011;22011;59.912;30.300;2024-03-06T13:25:25;9.05;;;1.35;;
35917;SDS011;22011;59.912;30.300;2024-03-06T13:27:54;6.30;;;1.35;;
35917;SDS011;22011;59.912;30.300;2024-03-06T13:30:22;5.55;;;1.33;;
35917;SDS011;22011;59.912;30.300;2024-03-06T13:32:50;5.90;;;1.25;;
35917;SDS011;22011;59.912;30.300;2024-03-06T13:35:18;6.20;;;0.93;;
35917;SDS011;22011;59.912;30.300;2024-03-06T13:37:45;7.25;;;0.88;;
35917;SDS011;22011;59.912;30.300;2024-03-06T13:40:15;6.20;;;1.05;;
35917;SDS011;22011;59.912;30.300;2024-03-06T13:42:43;5.47;;;1.45;;
35917;SDS011;22011;59.912;30.300;2024-03-06T13:45:12;5.47;;;1.33;;
35917;SDS011;22011;59.912;30.300;2024-03-06T13:47:40;11.30;;;0.82;;
35917;SDS011;22011;59.912;30.300;2024-03-06T13:50:12;0.98;;;0.82;;
35917;SDS011;22011;59.912;30.300;2024-03-06T13:52:41;4.20;;;1.20;;
35917;SDS011;22011;59.912;30.300;2024-03-06T13:55:09;6.72;;;1.05;;
35917;SDS011;22011;59.912;30.300;2024-03-06T13:57:37;1.83;;;0.90;;
35917;SDS011;22011;59.912;30.300;2024-03-06T14:00:06;6.75;;;1.35;;
35917;SDS011;22011;59.912;30.300;2024-03-06T14:02:40;2.72;;;1.77;;
35917;SDS011;22011;59.912;30.300;2024-03-06T14:05:08;2.67;;;0.98;;
35917;SDS011;22011;59.912;30.300;2024-03-06T14:07:35;10.52;;;0.95;;
35917;SDS011;22011;59.912;30.300;2024-03-06T14:10:03;5.53;;;1.20;;
35917;SDS011;22011;59.912;30.300;2024-03-06T14:12:33;2.42;;;1.02;;
35917;SDS011;22011;59.912;30.300;2024-03-06T14:15:01;4.05;;;1.40;;
35917;SDS011;22011;59.912;30.300;2024-03-06T14:17:30;2.38;;;0.90;;
35917;SDS011;22011;59.912;30.300;2024-03-06T14:19:59;2.45;;;0.77;;
35917;SDS011;22011;59.912;30.300;2024-03-06T14:22:26;3.40;;;0.88;;
35917;SDS011;22011;59.912;30.300;2024-03-06T14:24:54;3.85;;;1.02;;
35917;SDS011;22011;59.912;30.300;2024-03-06T14:27:22;3.13;;;0.95;;
35917;SDS011;22011;59.912;30.300;2024-03-06T14:29:49;6.03;;;2.40;;
35917;SDS011;22011;59.912;30.300;2024-03-06T14:32:20;3.75;;;1.02;;
35917;SDS011;22011;59.912;30.300;2024-03-06T14:34:48;7.25;;;0.80;;
35917;SDS011;22011;59.912;30.300;2024-03-06T14:37:18;3.05;;;0.80;;
35917;SDS011;22011;59.912;30.300;2024-03-06T14:39:45;1.42;;;0.80;;
35917;SDS011;22011;59.912;30.300;2024-03-06T14:42:13;2.95;;;0.98;;
35917;SDS011;22011;59.912;30.300;2024-03-06T14:44:41;4.13;;;0.98;;
35917;SDS011;22011;59.912;30.300;2024-03-06T14:47:10;5.95;;;1.10;;
35917;SDS011;22011;59.912;30.300;2024-03-06T14:49:39;3.60;;;0.85;;